Kalamita — EMSV — position and weather

sailwx.info

Track history (hours):
 
Tides and Currents Weather Stations Pressure Air Temp Water Temp Dewpoint Dewpoint Depression Visibility Wind Speed Wind Dir Waves Ship Positions

Kalamita

Last reported at 2016-May-31 07:29 UTC. Time now 2016-May-31 07:49 UTC.
Position N 44°47' E 034°41'.

Length 55 m; draft 4 m.

Type: Fishing. MMSI: 272440000.

Date/timePositionNaut miles runAvg speedWind from/ knotsBaromVisibWave heightAir tempDewpointWater temp
2016-May-31 07:29N 44°47' E 034°41'2 2.2
2016-May-31 06:33N 44°45' E 034°39'2 0.8
2016-May-31 04:28N 44°46' E 034°40'3 3.1
2016-May-31 03:33N 44°46' E 034°43'3 3.3
2016-May-31 02:33N 44°47' E 034°47'1 0.1
2016-May-30 16:32N 44°47' E 034°46'4 3.3
2016-May-30 15:18N 44°46' E 034°41'2 3.0
2016-May-30 14:33N 44°46' E 034°44'3 3.2
2016-May-30 13:33N 44°46' E 034°49'3 0.7
2016-May-30 09:17N 44°46' E 034°44'3 3.4
2016-May-30 08:30N 44°45' E 034°41'4 3.4
2016-May-30 07:23N 44°45' E 034°36'3 4.2
2016-May-30 06:33N 44°44' E 034°31'3 3.3
2016-May-30 05:33N 44°41' E 034°28'5 4.6
2016-May-30 04:33N 44°37' E 034°25'3 2.9
2016-May-30 03:33N 44°40' E 034°26'3 3.2
2016-May-30 02:33N 44°42' E 034°29'0 0.3
2016-May-30 01:29N 44°42' E 034°29'0 0.0
2016-May-30 00:32N 44°42' E 034°29'0 0.0
2016-May-29 23:32N 44°42' E 034°29'0 0.0
2016-May-29 22:29N 44°42' E 034°29'0 0.0
2016-May-29 21:29N 44°42' E 034°29'0 0.0
2016-May-29 20:32N 44°42' E 034°29'0 0.0
2016-May-29 19:20N 44°42' E 034°29'0 0.0
2016-May-29 18:26N 44°42' E 034°29'2 2.4
2016-May-29 17:33N 44°43' E 034°32'3 3.2
2016-May-29 16:32N 44°45' E 034°35'1 0.6
2016-May-29 15:14N 44°45' E 034°36'0 0.1
2016-May-29 14:33N 44°45' E 034°36'3 2.9
2016-May-29 13:26N 44°46' E 034°41'2 1.8
2016-May-29 12:32N 44°45' E 034°39'3 3.2
2016-May-29 11:27N 44°44' E 034°34'3 3.6
2016-May-29 10:33N 44°42' E 034°30'0 0.3
2016-May-29 09:30N 44°43' E 034°30'3 2.8
2016-May-29 08:33N 44°44' E 034°33'3 3.2
2016-May-29 07:33N 44°45' E 034°37'2 0.3
2016-May-29 02:19N 44°46' E 034°39'1 0.1
2016-May-28 17:19N 44°45' E 034°39'2 3.0
2016-May-28 16:33N 44°46' E 034°42'3 3.3
2016-May-28 15:29N 44°47' E 034°47'1 0.9
2016-May-28 14:33N 44°47' E 034°46'3 2.9
2016-May-28 13:33N 44°47' E 034°42'2 1.7
2016-May-28 12:31N 44°46' E 034°44'3 3.2
2016-May-28 11:26N 44°46' E 034°49'3 3.3
2016-May-28 10:28N 44°46' E 034°53'23 0.7
2016-May-27 03:33N 44°37' E 034°24'0 0.2
2016-May-27 02:33N 44°37' E 034°24'3 2.9
2016-May-27 01:33N 44°34' E 034°23'41 7.5
2016-May-26 20:05N 44°31' E 033°25'12 4.8
2016-May-26 17:32N 44°43' E 033°30'10 0.8
2016-May-26 05:16N 44°36' E 033°21'8 2.1
2016-May-26 01:30N 44°40' E 033°30'0 0.0
2016-May-26 00:30N 44°40' E 033°30'0 0.0
2016-May-25 22:30N 44°40' E 033°30'0 0.0
2016-May-25 21:33N 44°40' E 033°30'0 0.0
2016-May-25 20:24N 44°40' E 033°30'0 0.0
2016-May-25 19:06N 44°40' E 033°30'0 0.0
2016-May-25 18:30N 44°40' E 033°30'0 0.0
2016-May-25 17:33N 44°40' E 033°30'0 0.0
2016-May-25 16:18N 44°40' E 033°30'7 2.3
2016-May-25 13:12N 44°36' E 033°22'2 0.9
2016-May-25 11:18N 44°37' E 033°20'1 1.2
2016-May-25 10:07N 44°36' E 033°21'0 0.1
2016-May-25 05:30N 44°36' E 033°21'7 2.3
2016-May-25 02:28N 44°40' E 033°30'1 0.1
2016-May-24 20:33N 44°40' E 033°30'0 0.0
2016-May-24 19:33N 44°40' E 033°30'  
Track history (hours):
 
Tides and Currents Weather Stations Pressure Air Temp Water Temp Dewpoint Dewpoint Depression Visibility Wind Speed Wind Dir Waves Ship Positions

Kalamita

Last reported at 2016-May-31 07:29 UTC. Time now 2016-May-31 07:49 UTC.
Position N 44°47' E 034°41'.

Length 55 m; draft 4 m.

Type: Fishing. MMSI: 272440000.

Date/timePositionNaut miles runAvg speedWind from/ knotsBaromVisibWave heightAir tempDewpointWater temp
2016-May-31 07:29N 44°47' E 034°41'2 2.2
2016-May-31 06:33N 44°45' E 034°39'2 0.8
2016-May-31 04:28N 44°46' E 034°40'3 3.1
2016-May-31 03:33N 44°46' E 034°43'3 3.3
2016-May-31 02:33N 44°47' E 034°47'1 0.1
2016-May-30 16:32N 44°47' E 034°46'4 3.3
2016-May-30 15:18N 44°46' E 034°41'2 3.0
2016-May-30 14:33N 44°46' E 034°44'3 3.2
2016-May-30 13:33N 44°46' E 034°49'3 0.7
2016-May-30 09:17N 44°46' E 034°44'3 3.4
2016-May-30 08:30N 44°45' E 034°41'4 3.4
2016-May-30 07:23N 44°45' E 034°36'3 4.2
2016-May-30 06:33N 44°44' E 034°31'3 3.3
2016-May-30 05:33N 44°41' E 034°28'5 4.6
2016-May-30 04:33N 44°37' E 034°25'3 2.9
2016-May-30 03:33N 44°40' E 034°26'3 3.2
2016-May-30 02:33N 44°42' E 034°29'0 0.3
2016-May-30 01:29N 44°42' E 034°29'0 0.0
2016-May-30 00:32N 44°42' E 034°29'0 0.0
2016-May-29 23:32N 44°42' E 034°29'0 0.0
2016-May-29 22:29N 44°42' E 034°29'0 0.0
2016-May-29 21:29N 44°42' E 034°29'0 0.0
2016-May-29 20:32N 44°42' E 034°29'0 0.0
2016-May-29 19:20N 44°42' E 034°29'0 0.0
2016-May-29 18:26N 44°42' E 034°29'2 2.4
2016-May-29 17:33N 44°43' E 034°32'3 3.2
2016-May-29 16:32N 44°45' E 034°35'1 0.6
2016-May-29 15:14N 44°45' E 034°36'0 0.1
2016-May-29 14:33N 44°45' E 034°36'3 2.9
2016-May-29 13:26N 44°46' E 034°41'2 1.8
2016-May-29 12:32N 44°45' E 034°39'3 3.2
2016-May-29 11:27N 44°44' E 034°34'3 3.6
2016-May-29 10:33N 44°42' E 034°30'0 0.3
2016-May-29 09:30N 44°43' E 034°30'3 2.8
2016-May-29 08:33N 44°44' E 034°33'3 3.2
2016-May-29 07:33N 44°45' E 034°37'2 0.3
2016-May-29 02:19N 44°46' E 034°39'1 0.1
2016-May-28 17:19N 44°45' E 034°39'2 3.0
2016-May-28 16:33N 44°46' E 034°42'3 3.3
2016-May-28 15:29N 44°47' E 034°47'1 0.9
2016-May-28 14:33N 44°47' E 034°46'3 2.9
2016-May-28 13:33N 44°47' E 034°42'2 1.7
2016-May-28 12:31N 44°46' E 034°44'3 3.2
2016-May-28 11:26N 44°46' E 034°49'3 3.3
2016-May-28 10:28N 44°46' E 034°53'23 0.7
2016-May-27 03:33N 44°37' E 034°24'0 0.2
2016-May-27 02:33N 44°37' E 034°24'3 2.9
2016-May-27 01:33N 44°34' E 034°23'41 7.5
2016-May-26 20:05N 44°31' E 033°25'12 4.8
2016-May-26 17:32N 44°43' E 033°30'10 0.8
2016-May-26 05:16N 44°36' E 033°21'8 2.1
2016-May-26 01:30N 44°40' E 033°30'0 0.0
2016-May-26 00:30N 44°40' E 033°30'0 0.0
2016-May-25 22:30N 44°40' E 033°30'0 0.0
2016-May-25 21:33N 44°40' E 033°30'0 0.0
2016-May-25 20:24N 44°40' E 033°30'0 0.0
2016-May-25 19:06N 44°40' E 033°30'0 0.0
2016-May-25 18:30N 44°40' E 033°30'0 0.0
2016-May-25 17:33N 44°40' E 033°30'0 0.0
2016-May-25 16:18N 44°40' E 033°30'7 2.3
2016-May-25 13:12N 44°36' E 033°22'2 0.9
2016-May-25 11:18N 44°37' E 033°20'1 1.2
2016-May-25 10:07N 44°36' E 033°21'0 0.1
2016-May-25 05:30N 44°36' E 033°21'7 2.3
2016-May-25 02:28N 44°40' E 033°30'1 0.1
2016-May-24 20:33N 44°40' E 033°30'0 0.0
2016-May-24 19:33N 44°40' E 033°30'  

Dump ship's entire track history